createdAt,value
2022-09-17T00:01:51.990Z,97958.91
2022-09-17T00:04:21.752Z,97955.41
2022-09-17T00:06:54.212Z,97950.31
2022-09-17T00:09:23.922Z,97958.50
2022-09-17T00:11:53.557Z,97962.41
2022-09-17T00:14:23.255Z,97963.16
2022-09-17T00:16:52.921Z,97961.94
2022-09-17T00:19:25.428Z,97965.78
2022-09-17T00:21:57.720Z,97972.06
2022-09-17T00:24:27.530Z,97964.97
2022-09-17T00:26:57.212Z,97962.31
2022-09-17T00:29:27.061Z,97964.97
2022-09-17T00:31:56.759Z,97963.03
2022-09-17T00:34:26.407Z,97965.38
2022-09-17T00:36:58.722Z,97968.16
2022-09-17T00:39:28.372Z,97966.91
2022-09-17T00:41:58.074Z,97972.47
2022-09-17T00:44:48.211Z,97969.38
2022-09-17T00:47:22.750Z,97969.06
2022-09-17T00:49:56.622Z,97968.97
2022-09-17T00:52:33.119Z,97970.19
2022-09-17T00:55:10.752Z,97970.22
2022-09-17T00:57:40.913Z,97967.44
2022-09-17T01:00:13.230Z,97970.56
2022-09-17T01:02:43.691Z,97980.44
2022-09-17T01:05:15.186Z,97987.50
2022-09-17T01:08:01.311Z,97983.47
2022-09-17T01:11:05.872Z,97982.69
2022-09-17T01:13:44.918Z,97975.13
2022-09-17T01:16:22.715Z,97977.53
2022-09-17T01:19:09.150Z,97979.09
2022-09-17T01:21:51.397Z,97973.25
2022-09-17T01:24:58.690Z,97977.47
2022-09-17T01:27:58.253Z,97986.44
2022-09-17T01:30:58.392Z,97977.81
2022-09-17T01:33:34.840Z,97991.44
2022-09-17T01:36:17.625Z,97982.47
2022-09-17T01:38:55.971Z,97987.22
2022-09-17T01:41:36.091Z,97989.13
2022-09-17T01:44:11.558Z,97988.75
2022-09-17T01:46:49.419Z,97999.34
2022-09-17T01:49:19.816Z,97995.06
2022-09-17T01:51:53.311Z,97990.31
2022-09-17T01:54:28.166Z,97985.44
2022-09-17T01:57:02.992Z,97994.09
2022-09-17T01:59:37.280Z,97993.41
2022-09-17T02:02:14.839Z,98007.13
2022-09-17T02:04:50.622Z,97998.03
2022-09-17T02:07:23.627Z,98003.22
2022-09-17T02:10:02.165Z,98007.97
2022-09-17T02:12:34.865Z,98001.59
2022-09-17T02:15:08.584Z,97996.19
2022-09-17T02:17:45.601Z,98005.25
2022-09-17T02:20:20.863Z,97993.47
2022-09-17T02:22:58.404Z,98000.47
2022-09-17T02:25:31.527Z,97996.50
2022-09-17T02:28:06.198Z,98000.47
2022-09-17T02:30:36.000Z,97994.59
2022-09-17T02:33:11.999Z,97993.03
2022-09-17T02:35:43.671Z,97997.78
2022-09-17T02:38:13.812Z,97995.38
2022-09-17T02:40:51.621Z,97997.69
2022-09-17T02:43:29.277Z,97987.44
2022-09-17T02:46:17.316Z,97986.25
2022-09-17T02:49:19.373Z,97989.28
2022-09-17T02:52:00.110Z,97984.66
2022-09-17T02:54:34.835Z,97984.16
2022-09-17T02:57:19.047Z,97975.69
2022-09-17T02:59:56.490Z,97986.13
2022-09-17T03:02:31.541Z,97984.25
2022-09-17T03:05:05.127Z,97978.41
2022-09-17T03:07:35.027Z,97977.72
2022-09-17T03:10:04.718Z,97969.84
2022-09-17T03:12:34.782Z,97976.09
2022-09-17T03:15:04.457Z,97976.44
2022-09-17T03:17:34.473Z,97984.69
2022-09-17T03:20:07.393Z,97986.88
2022-09-17T03:22:37.375Z,97983.38
2022-09-17T03:25:08.039Z,97978.78
2022-09-17T03:27:37.838Z,97975.25
2022-09-17T03:30:08.700Z,97985.66
2022-09-17T03:32:38.449Z,97990.31
2022-09-17T03:35:11.446Z,97987.50
2022-09-17T03:37:41.196Z,97996.09
2022-09-17T03:40:11.633Z,97998.84
2022-09-17T03:42:41.433Z,97993.91
2022-09-17T03:45:12.162Z,98003.28
2022-09-17T03:47:41.887Z,98007.91
2022-09-17T03:50:14.317Z,98007.13
2022-09-17T03:52:45.888Z,98002.09
2022-09-17T03:55:16.091Z,98007.88
2022-09-17T03:57:46.215Z,98010.97
2022-09-17T04:00:17.756Z,97999.63
2022-09-17T04:02:47.883Z,97999.16
2022-09-17T04:05:20.253Z,98013.69
2022-09-17T04:07:49.908Z,98008.78
2022-09-17T04:10:19.626Z,98006.44
2022-09-17T04:12:49.288Z,98004.88
2022-09-17T04:15:19.214Z,98002.84
2022-09-17T04:17:49.003Z,98007.69
2022-09-17T04:20:21.292Z,98002.50
2022-09-17T04:22:50.970Z,98007.25
2022-09-17T04:25:20.958Z,98009.78
2022-09-17T04:27:50.758Z,98011.28
2022-09-17T04:30:20.862Z,98010.44
2022-09-17T04:32:50.554Z,98017.09
2022-09-17T04:35:22.800Z,98019.50
2022-09-17T04:37:56.199Z,98019.41
2022-09-17T04:40:27.282Z,98018.94
2022-09-17T04:42:59.570Z,98024.50
2022-09-17T04:45:29.722Z,98027.63
2022-09-17T04:47:59.552Z,98024.50
2022-09-17T04:50:31.825Z,98025.63
2022-09-17T04:53:01.554Z,98038.97
2022-09-17T04:55:31.414Z,98041.94
2022-09-17T04:58:01.129Z,98036.97
2022-09-17T05:00:31.104Z,98034.44
2022-09-17T05:03:00.792Z,98041.41
2022-09-17T05:05:33.130Z,98048.25
2022-09-17T05:08:02.975Z,98044.28
2022-09-17T05:10:32.670Z,98047.66
2022-09-17T05:13:02.409Z,98049.63
2022-09-17T05:15:32.139Z,98053.06
2022-09-17T05:18:01.829Z,98043.25
2022-09-17T05:20:34.140Z,98055.31
2022-09-17T05:23:03.911Z,98043.91
2022-09-17T05:25:33.629Z,98048.50
2022-09-17T05:28:04.000Z,98047.63
2022-09-17T05:30:34.053Z,98052.63
2022-09-17T05:33:04.673Z,98055.31
2022-09-17T05:35:38.116Z,98061.00
2022-09-17T05:38:09.012Z,98067.16
2022-09-17T05:40:38.975Z,98063.22
2022-09-17T05:43:09.906Z,98051.53
2022-09-17T05:45:40.188Z,98061.84
2022-09-17T05:48:12.406Z,98061.94
2022-09-17T05:50:44.985Z,98061.78
2022-09-17T05:53:16.095Z,98057.00
2022-09-17T05:55:45.902Z,98068.78
2022-09-17T05:58:17.068Z,98079.34
2022-09-17T06:00:49.379Z,98080.81
2022-09-17T06:03:20.917Z,98077.75
2022-09-17T06:05:59.025Z,98092.69
2022-09-17T06:08:31.885Z,98088.44
2022-09-17T06:11:02.632Z,98088.09
2022-09-17T06:13:32.604Z,98099.28
2022-09-17T06:16:02.939Z,98100.91
2022-09-17T06:18:34.277Z,98100.44
2022-09-17T06:21:07.596Z,98094.00
2022-09-17T06:23:38.001Z,98104.91
2022-09-17T06:26:09.143Z,98105.66
2022-09-17T06:28:41.885Z,98104.84
2022-09-17T06:31:13.374Z,98102.06
2022-09-17T06:33:43.599Z,98109.13
2022-09-17T06:36:16.002Z,98100.81
2022-09-17T06:38:46.268Z,98108.09
2022-09-17T06:41:17.150Z,98103.34
2022-09-17T06:43:47.050Z,98103.75
2022-09-17T06:46:16.927Z,98108.94
2022-09-17T06:48:46.618Z,98105.78
2022-09-17T06:51:18.947Z,98108.00
2022-09-17T06:53:48.976Z,98114.25
2022-09-17T06:56:19.245Z,98124.41
2022-09-17T06:58:48.954Z,98120.38
2022-09-17T07:01:18.651Z,98116.84
2022-09-17T07:03:49.891Z,98120.84
2022-09-17T07:06:22.167Z,98125.94
2022-09-17T07:08:51.890Z,98115.66
2022-09-17T07:11:21.634Z,98119.22
2022-09-17T07:13:51.407Z,98125.16
2022-09-17T07:16:21.173Z,98131.38
2022-09-17T07:18:51.011Z,98126.13
2022-09-17T07:21:23.301Z,98124.63
2022-09-17T07:23:54.518Z,98133.63
2022-09-17T07:26:24.206Z,98143.09
2022-09-17T07:28:54.006Z,98144.25
2022-09-17T07:31:23.765Z,98150.38
2022-09-17T07:33:53.616Z,98147.56
2022-09-17T07:36:25.902Z,98152.94
2022-09-17T07:38:55.540Z,98150.63
2022-09-17T07:41:25.351Z,98155.22
2022-09-17T07:43:56.504Z,98159.91
2022-09-17T07:46:26.478Z,98153.66
2022-09-17T07:48:56.174Z,98155.97
2022-09-17T07:51:30.900Z,98162.66
2022-09-17T07:54:02.491Z,98164.16
2022-09-17T07:56:32.346Z,98175.56
2022-09-17T07:59:02.033Z,98166.97
2022-09-17T08:01:31.868Z,98174.78
2022-09-17T08:04:01.547Z,98174.75
2022-09-17T08:06:34.460Z,98167.16
2022-09-17T08:09:04.168Z,98175.00
2022-09-17T08:14:29.172Z,98182.00
2022-09-17T08:16:59.536Z,98174.75
2022-09-17T08:19:29.947Z,98181.31
2022-09-17T08:22:02.333Z,98184.38
2022-09-17T08:24:32.330Z,98186.69
2022-09-17T08:27:01.997Z,98183.94
2022-09-17T08:29:35.079Z,98185.16
2022-09-17T08:32:05.773Z,98173.13
2022-09-17T08:34:36.892Z,98181.38
2022-09-17T08:37:09.171Z,98173.47
2022-09-17T08:39:39.090Z,98184.81
2022-09-17T08:42:17.777Z,98177.72
2022-09-17T08:44:52.097Z,98168.22
2022-09-17T08:47:29.527Z,98175.44
2022-09-17T08:50:01.371Z,98174.13
2022-09-17T08:52:56.034Z,98171.44
2022-09-17T08:55:35.333Z,98182.97
2022-09-17T08:58:25.183Z,98189.63
2022-09-17T09:01:01.333Z,98179.50
2022-09-17T09:03:44.648Z,98184.44
2022-09-17T09:06:16.413Z,98187.66
2022-09-17T09:08:53.062Z,98195.13
2022-09-17T09:11:28.359Z,98193.91
2022-09-17T09:14:03.335Z,98192.28
2022-09-17T09:16:36.256Z,98195.66
2022-09-17T09:19:22.844Z,98195.06
2022-09-17T09:22:04.770Z,98185.28
2022-09-17T09:24:44.173Z,98185.66
2022-09-17T09:27:20.692Z,98182.72
2022-09-17T09:30:02.169Z,98185.06
2022-09-17T09:32:45.451Z,98184.25
2022-09-17T09:35:21.467Z,98185.34
2022-09-17T09:37:58.680Z,98183.03
2022-09-17T09:40:40.031Z,98187.78
2022-09-17T09:43:20.525Z,98179.09
2022-09-17T09:46:22.331Z,98188.41
2022-09-17T09:49:08.109Z,98185.31
2022-09-17T09:51:50.079Z,98181.53
2022-09-17T09:54:44.470Z,98186.66
2022-09-17T09:57:19.273Z,98177.72
2022-09-17T09:59:48.932Z,98183.66
2022-09-17T10:02:18.614Z,98184.06
2022-09-17T10:04:52.742Z,98185.66
2022-09-17T10:07:23.233Z,98192.75
2022-09-17T10:10:11.706Z,98192.34
2022-09-17T10:12:43.899Z,98184.53
2022-09-17T10:15:29.068Z,98179.47
2022-09-17T10:18:14.842Z,98178.38
2022-09-17T10:20:52.768Z,98180.31
2022-09-17T10:23:23.842Z,98184.25
2022-09-17T10:25:55.686Z,98176.81
2022-09-17T10:28:37.750Z,98176.84
2022-09-17T10:31:10.785Z,98183.50
2022-09-17T10:33:54.471Z,98176.44
2022-09-17T10:36:43.394Z,98180.75
2022-09-17T10:39:34.921Z,98176.44
2022-09-17T10:42:06.926Z,98176.44
2022-09-17T10:44:40.187Z,98170.97
2022-09-17T10:47:16.276Z,98165.41
2022-09-17T10:49:50.392Z,98164.78
2022-09-17T10:52:28.475Z,98162.03
2022-09-17T10:55:15.343Z,98159.06
2022-09-17T10:58:03.879Z,98153.88
2022-09-17T11:00:48.063Z,98140.25
2022-09-17T11:03:46.349Z,98143.94
2022-09-17T11:06:40.672Z,98151.38
2022-09-17T11:09:25.908Z,98141.75
2022-09-17T11:12:09.108Z,98142.72
2022-09-17T11:14:52.385Z,98147.16
2022-09-17T11:17:54.591Z,98147.81
2022-09-17T11:20:45.080Z,98145.19
2022-09-17T11:23:32.331Z,98143.34
2022-09-17T11:26:08.410Z,98133.81
2022-09-17T11:28:55.603Z,98136.34
2022-09-17T11:31:35.617Z,98137.31
2022-09-17T11:34:28.360Z,98133.75
2022-09-17T11:37:07.724Z,98133.75
2022-09-17T11:39:47.029Z,98134.50
2022-09-17T11:42:22.401Z,98131.63
2022-09-17T11:44:57.436Z,98128.97
2022-09-17T11:47:32.333Z,98125.50
2022-09-17T11:50:06.275Z,98134.03
2022-09-17T11:52:43.050Z,98133.00
2022-09-17T11:55:23.768Z,98137.44
2022-09-17T11:57:59.560Z,98135.56
2022-09-17T12:00:32.632Z,98126.97
2022-09-17T12:03:06.906Z,98130.84
2022-09-17T12:05:43.016Z,98124.19
2022-09-17T12:08:21.083Z,98123.03
2022-09-17T12:10:57.019Z,98126.97
2022-09-17T12:13:36.274Z,98129.75
2022-09-17T12:16:17.304Z,98125.47
2022-09-17T12:18:55.729Z,98112.91
2022-09-17T12:21:30.645Z,98117.59
2022-09-17T12:24:10.577Z,98109.63
2022-09-17T12:27:04.746Z,98105.63
2022-09-17T12:29:46.395Z,98104.63
2022-09-17T12:32:35.850Z,98099.56
2022-09-17T12:35:17.417Z,98118.91
2022-09-17T12:37:59.399Z,98110.06
2022-09-17T12:40:39.292Z,98109.31
2022-09-17T12:43:34.199Z,98098.66
2022-09-17T12:46:17.557Z,98103.31
2022-09-17T12:49:07.567Z,98096.44
2022-09-17T12:51:55.874Z,98102.00
2022-09-17T12:54:52.945Z,98090.47
2022-09-17T12:57:35.987Z,98095.88
2022-09-17T13:00:09.475Z,98109.19
2022-09-17T13:02:44.144Z,98118.03
2022-09-17T13:05:36.141Z,98129.19
2022-09-17T13:08:48.226Z,98123.41
2022-09-17T13:11:49.705Z,98130.47
2022-09-17T13:14:31.743Z,98134.47
2022-09-17T13:17:08.998Z,98142.34
2022-09-17T13:19:46.749Z,98139.56
2022-09-17T13:22:20.329Z,98145.44
2022-09-17T13:25:03.809Z,98139.88
2022-09-17T13:27:37.791Z,98148.16
2022-09-17T13:30:12.289Z,98144.97
2022-09-17T13:32:59.690Z,98136.75
2022-09-17T13:35:53.874Z,98134.38
2022-09-17T13:38:25.354Z,98140.25
2022-09-17T13:41:15.289Z,98141.47
2022-09-17T13:43:49.652Z,98140.72
2022-09-17T13:46:25.621Z,98149.72
2022-09-17T13:49:02.651Z,98143.06
2022-09-17T13:51:53.812Z,98150.50
2022-09-17T13:54:27.258Z,98135.56
2022-09-17T13:57:11.110Z,98146.94
2022-09-17T13:59:41.542Z,98136.28
2022-09-17T14:02:40.952Z,98128.38
2022-09-17T14:05:32.514Z,98127.69
2022-09-17T14:08:31.624Z,98137.13
2022-09-17T14:11:04.507Z,98136.34
2022-09-17T14:13:55.588Z,98128.50
2022-09-17T14:16:50.589Z,98133.59
2022-09-17T14:19:51.065Z,98135.97
2022-09-17T14:22:28.232Z,98133.19
2022-09-17T14:24:58.338Z,98132.41
2022-09-17T14:27:48.109Z,98130.47
2022-09-17T14:30:21.210Z,98141.69
2022-09-17T14:32:57.756Z,98135.78
2022-09-17T14:35:36.327Z,98136.94
2022-09-17T14:38:13.779Z,98131.78
2022-09-17T14:40:47.568Z,98127.53
2022-09-17T14:43:25.008Z,98127.13
2022-09-17T14:45:56.494Z,98118.03
2022-09-17T14:48:34.282Z,98113.00
2022-09-17T14:51:32.042Z,98116.63
2022-09-17T14:54:17.937Z,98122.13
2022-09-17T14:56:54.866Z,98114.75
2022-09-17T14:59:44.857Z,98124.56
2022-09-17T15:02:30.735Z,98112.03
2022-09-17T15:05:00.551Z,98117.53
2022-09-17T15:07:33.082Z,98113.59
2022-09-17T15:10:16.529Z,98117.94
2022-09-17T15:12:48.347Z,98118.31
2022-09-17T15:15:26.514Z,98116.34
2022-09-17T15:17:57.263Z,98106.91
2022-09-17T15:20:31.455Z,98107.25
2022-09-17T15:23:12.990Z,98108.00
2022-09-17T15:25:44.956Z,98107.28
2022-09-17T15:28:32.524Z,98106.13
2022-09-17T15:31:02.579Z,98112.06
2022-09-17T15:33:34.443Z,98097.59
2022-09-17T15:36:12.121Z,98096.41
2022-09-17T15:38:45.201Z,98099.59
2022-09-17T15:41:35.345Z,98094.88
2022-09-17T15:44:29.770Z,98098.81
2022-09-17T15:47:30.581Z,98101.19
2022-09-17T15:50:14.700Z,98098.34
2022-09-17T15:52:44.807Z,98105.00
2022-09-17T15:55:33.170Z,98096.34
2022-09-17T15:58:04.125Z,98103.84
2022-09-17T16:00:34.344Z,98108.94
2022-09-17T16:03:53.917Z,98109.72
2022-09-17T16:06:41.491Z,98108.16
2022-09-17T16:09:39.279Z,98115.63
2022-09-17T16:12:15.107Z,98116.84
2022-09-17T16:14:52.893Z,98122.72
2022-09-17T16:17:38.293Z,98123.13
2022-09-17T16:20:16.942Z,98126.66
2022-09-17T16:22:48.221Z,98135.28
2022-09-17T16:25:18.729Z,98119.22
2022-09-17T16:27:55.008Z,98135.28
2022-09-17T16:30:26.392Z,98125.91
2022-09-17T16:32:56.603Z,98124.34
2022-09-17T16:35:27.832Z,98126.25
2022-09-17T16:37:59.268Z,98135.69
2022-09-17T16:40:31.373Z,98134.50
2022-09-17T16:43:06.053Z,98130.22
2022-09-17T16:45:35.774Z,98144.69
2022-09-17T16:48:05.852Z,98136.47
2022-09-17T16:50:36.075Z,98134.50
2022-09-17T16:53:06.574Z,98141.56
2022-09-17T16:55:36.285Z,98129.41
2022-09-17T16:58:08.588Z,98131.78
2022-09-17T17:00:38.942Z,98133.34
2022-09-17T17:03:08.853Z,98124.72
2022-09-17T17:05:40.443Z,98131.38
2022-09-17T17:08:11.658Z,98136.06
2022-09-17T17:10:41.685Z,98132.53
2022-09-17T17:13:13.938Z,98127.44
2022-09-17T17:15:44.075Z,98129.41
2022-09-17T17:18:13.872Z,98134.88
2022-09-17T17:20:43.560Z,98136.47
2022-09-17T17:23:13.804Z,98170.97
2022-09-17T17:25:43.469Z,98190.44
2022-09-17T17:28:15.791Z,98190.34
2022-09-17T17:30:50.341Z,98204.56
2022-09-17T17:33:20.069Z,98188.13
2022-09-17T17:35:49.760Z,98170.44
2022-09-17T17:38:20.391Z,98182.19
2022-09-17T17:40:50.185Z,98177.13
2022-09-17T17:43:22.472Z,98170.50
2022-09-17T17:45:52.170Z,98168.06
2022-09-17T17:48:21.775Z,98171.53
2022-09-17T17:50:55.900Z,98181.69
2022-09-17T17:53:26.474Z,98174.59
2022-09-17T17:56:00.685Z,98190.59
2022-09-17T17:58:33.210Z,98183.59
2022-09-17T18:01:02.949Z,98184.31
2022-09-17T18:03:32.641Z,98184.34
2022-09-17T18:06:02.329Z,98187.38
2022-09-17T18:08:32.106Z,98187.09
2022-09-17T18:11:04.222Z,98181.78
2022-09-17T18:13:36.787Z,98184.50
2022-09-17T18:16:09.220Z,98187.25
2022-09-17T18:18:44.460Z,98190.69
2022-09-17T18:21:17.054Z,98198.91
2022-09-17T18:23:47.491Z,98196.13
2022-09-17T18:26:18.706Z,98195.81
2022-09-17T18:28:51.517Z,98201.78
2022-09-17T18:31:25.498Z,98209.50
2022-09-17T18:33:58.558Z,98212.66
2022-09-17T18:36:29.509Z,98219.59
2022-09-17T18:39:56.414Z,98214.41
2022-09-17T18:41:52.822Z,98223.81
2022-09-17T18:44:25.320Z,98221.16
2022-09-17T18:46:55.153Z,98230.78
2022-09-17T18:49:24.909Z,98232.94
2022-09-17T18:51:54.627Z,98232.50
2022-09-17T18:54:24.331Z,98240.41
2022-09-17T18:56:54.017Z,98228.22
2022-09-17T18:59:26.290Z,98232.47
2022-09-17T19:01:55.985Z,98237.97
2022-09-17T19:04:25.932Z,98234.53
2022-09-17T19:06:55.492Z,98238.03
2022-09-17T19:09:25.506Z,98246.66
2022-09-17T19:11:55.210Z,98250.81
2022-09-17T19:14:27.545Z,98255.91
2022-09-17T19:16:57.989Z,98255.47
2022-09-17T19:19:27.725Z,98266.34
2022-09-17T19:21:57.488Z,98274.19
2022-09-17T19:24:27.195Z,98281.63
2022-09-17T19:26:56.898Z,98276.03
2022-09-17T19:29:29.277Z,98273.09
2022-09-17T19:31:59.018Z,98282.09
2022-09-17T19:34:28.720Z,98283.50
2022-09-17T19:36:58.427Z,98286.63
2022-09-17T19:39:28.114Z,98289.72
2022-09-17T19:42:00.442Z,98292.91
2022-09-17T19:44:32.719Z,98293.00
2022-09-17T19:47:02.566Z,98301.31
2022-09-17T19:49:32.229Z,98306.75
2022-09-17T19:52:01.904Z,98309.72
2022-09-17T19:54:31.696Z,98312.88
2022-09-17T19:57:01.404Z,98317.13
2022-09-17T19:59:33.598Z,98320.88
2022-09-17T20:02:03.262Z,98322.91
2022-09-17T20:04:33.033Z,98333.56
2022-09-17T20:07:04.577Z,98329.88
2022-09-17T20:09:34.603Z,98331.38
2022-09-17T20:12:04.834Z,98322.06
2022-09-17T20:14:37.151Z,98323.31
2022-09-17T20:17:06.809Z,98327.69
2022-09-17T20:19:36.465Z,98330.59
2022-09-17T20:22:06.189Z,98334.88
2022-09-17T20:24:36.592Z,98332.34
2022-09-17T20:27:06.570Z,98332.25
2022-09-17T20:29:38.809Z,98339.66
2022-09-17T20:32:08.598Z,98341.44
2022-09-17T20:34:38.217Z,98358.53
2022-09-17T20:37:13.484Z,98370.59
2022-09-17T20:39:43.631Z,98378.53
2022-09-17T20:42:13.437Z,98374.22
2022-09-17T20:44:45.714Z,98388.34
2022-09-17T20:47:15.394Z,98368.31
2022-09-17T20:49:45.444Z,98353.38
2022-09-17T20:52:19.084Z,98367.03
2022-09-17T20:54:50.661Z,98373.00
2022-09-17T20:57:20.308Z,98357.59
2022-09-17T20:59:55.794Z,98361.09
2022-09-17T21:02:25.544Z,98344.75
2022-09-17T21:04:56.059Z,98352.88
2022-09-17T21:07:25.996Z,98360.47
2022-09-17T21:09:55.640Z,98363.06
2022-09-17T21:12:27.621Z,98362.28
2022-09-17T21:15:00.076Z,98360.66
2022-09-17T21:17:29.667Z,98362.22
2022-09-17T21:19:59.330Z,98368.59
2022-09-17T21:22:29.026Z,98361.94
2022-09-17T21:24:59.541Z,98360.03
2022-09-17T21:27:29.191Z,98368.19
2022-09-17T21:30:02.642Z,98365.66
2022-09-17T21:32:32.342Z,98362.53
2022-09-17T21:35:01.965Z,98377.75
2022-09-17T21:37:31.667Z,98379.31
2022-09-17T21:40:01.326Z,98386.81
2022-09-17T21:42:31.231Z,98376.88
2022-09-17T21:45:03.617Z,98379.25
2022-09-17T21:47:34.996Z,98376.28
2022-09-17T21:50:04.707Z,98372.97
2022-09-17T21:52:34.619Z,98379.38
2022-09-17T21:55:04.300Z,98378.72
2022-09-17T21:57:33.929Z,98378.00
2022-09-17T22:00:09.107Z,98376.50
2022-09-17T22:02:38.849Z,98381.94
2022-09-17T22:05:08.681Z,98381.03
2022-09-17T22:07:38.973Z,98379.47
2022-09-17T22:10:14.353Z,98381.56
2022-09-17T22:12:44.110Z,98382.56
2022-09-17T22:15:16.392Z,98382.41
2022-09-17T22:17:46.071Z,98386.53
2022-09-17T22:20:15.771Z,98395.59
2022-09-17T22:22:45.534Z,98386.63
2022-09-17T22:25:15.267Z,98384.94
2022-09-17T22:28:03.963Z,98384.69
2022-09-17T22:30:38.160Z,98372.06
2022-09-17T22:33:08.007Z,98372.88
2022-09-17T22:35:37.805Z,98374.59
2022-09-17T22:38:07.533Z,98374.84
2022-09-17T22:40:38.835Z,98375.66
2022-09-17T22:43:08.537Z,98378.22
2022-09-17T22:45:40.827Z,98375.22
2022-09-17T22:48:10.528Z,98368.16
2022-09-17T22:50:40.250Z,98365.03
2022-09-17T22:53:09.937Z,98365.13
2022-09-17T22:55:39.913Z,98356.53
2022-09-17T22:58:09.730Z,98348.19
2022-09-17T23:00:43.309Z,98360.16
2022-09-17T23:03:13.071Z,98357.91
2022-09-17T23:05:42.797Z,98369.28
2022-09-17T23:08:12.524Z,98373.78
2022-09-17T23:10:42.778Z,98365.59
2022-09-17T23:13:13.835Z,98366.75
2022-09-17T23:15:46.189Z,98369.97
2022-09-17T23:18:16.051Z,98370.81
2022-09-17T23:20:45.880Z,98378.19
2022-09-17T23:23:15.608Z,98373.16
2022-09-17T23:25:45.295Z,98378.94
2022-09-17T23:28:15.111Z,98379.09
2022-09-17T23:30:47.481Z,98382.63
2022-09-17T23:33:17.595Z,98379.69
2022-09-17T23:35:47.285Z,98386.31
2022-09-17T23:38:16.993Z,98372.91
2022-09-17T23:40:47.206Z,98367.25
2022-09-17T23:43:16.939Z,98375.38
2022-09-17T23:45:49.382Z,98369.28
2022-09-17T23:48:19.032Z,98364.75
2022-09-17T23:50:49.165Z,98369.06
2022-09-17T23:53:18.852Z,98373.78
2022-09-17T23:55:49.226Z,98370.81
2022-09-17T23:58:19.299Z,98377.00
